Time,TemperatureF,DewpointF,PressureIn,WindDirection,WindDirectionDegrees,WindSpeedMPH,WindSpeedGustMPH,Humidity,HourlyPrecipIn,Conditions,Clouds,dailyrainin,SolarRadiationWatts/m^2,SoftwareType,DateUTC
2013-02-17 00:01:00,59.0,50.0,-100.00,West,269,3.0,10.0,73,0.00,,,0.00,0.000000,,2013-02-17 10:01:00,
2013-02-17 00:11:00,59.0,50.0,-100.00,West,269,3.0,10.0,73,0.00,,,0.00,0.000000,,2013-02-17 10:11:00,
2013-02-17 00:21:00,59.0,50.0,-100.00,West,269,3.0,10.0,73,0.00,,,0.00,0.000000,,2013-02-17 10:21:00,
2013-02-17 00:31:00,59.0,50.0,-100.00,West,269,3.0,10.0,73,0.00,,,0.00,0.000000,,2013-02-17 10:31:00,
2013-02-17 01:01:00,57.0,50.0,-100.00,SW,216,2.0,10.0,77,0.00,,,0.00,0.000000,,2013-02-17 11:01:00,
2013-02-17 01:11:00,57.0,50.0,-100.00,SW,216,2.0,10.0,77,0.00,,,0.00,0.000000,,2013-02-17 11:11:00,
2013-02-17 01:21:00,57.0,50.0,-100.00,SW,216,2.0,10.0,77,0.00,,,0.00,0.000000,,2013-02-17 11:21:00,
2013-02-17 01:32:00,57.0,50.0,-100.00,SW,216,2.0,10.0,77,0.00,,,0.00,0.000000,,2013-02-17 11:32:00,
2013-02-17 02:03:00,58.0,53.0,-100.00,ESE,116,4.0,7.0,83,0.00,,,0.00,0.000000,,2013-02-17 12:03:00,
2013-02-17 02:11:00,58.0,53.0,-100.00,ESE,116,4.0,7.0,83,0.00,,,0.00,0.000000,,2013-02-17 12:11:00,
2013-02-17 02:22:00,58.0,53.0,-100.00,ESE,116,4.0,7.0,83,0.00,,,0.00,0.000000,,2013-02-17 12:22:00,
2013-02-17 02:31:00,58.0,53.0,-100.00,ESE,116,4.0,7.0,83,0.00,,,0.00,0.000000,,2013-02-17 12:31:00,
2013-02-17 03:02:00,58.0,53.0,-100.00,SSE,149,3.0,7.0,83,0.00,,,0.00,0.000000,,2013-02-17 13:02:00,
2013-02-17 03:11:00,58.0,53.0,-100.00,SSE,149,3.0,7.0,83,0.00,,,0.00,0.000000,,2013-02-17 13:11:00,
2013-02-17 03:21:00,58.0,53.0,-100.00,SSE,149,3.0,7.0,83,0.00,,,0.00,0.000000,,2013-02-17 13:21:00,
2013-02-17 03:32:00,58.0,53.0,-100.00,SSE,149,3.0,7.0,83,0.00,,,0.00,0.000000,,2013-02-17 13:32:00,
2013-02-17 04:01:00,58.0,54.0,-100.00,SSE,168,5.0,8.0,85,0.00,,,0.00,0.000000,,2013-02-17 14:01:00,
2013-02-17 04:11:00,58.0,54.0,-100.00,SSE,168,5.0,8.0,85,0.00,,,0.00,0.000000,,2013-02-17 14:11:00,
2013-02-17 04:21:00,58.0,54.0,-100.00,SSE,168,5.0,8.0,85,0.00,,,0.00,0.000000,,2013-02-17 14:21:00,
2013-02-17 04:32:00,58.0,54.0,-100.00,SSE,168,5.0,8.0,85,0.00,,,0.00,0.000000,,2013-02-17 14:32:00,
2013-02-17 05:01:00,58.0,42.0,-100.00,North,359,1.0,8.0,55,0.00,,,0.00,0.000000,,2013-02-17 15:01:00,
2013-02-17 05:11:00,58.0,42.0,-100.00,North,359,1.0,8.0,55,0.00,,,0.00,0.000000,,2013-02-17 15:11:00,
2013-02-17 05:21:00,58.0,42.0,-100.00,North,359,1.0,8.0,55,0.00,,,0.00,0.000000,,2013-02-17 15:21:00,
2013-02-17 05:31:00,58.0,42.0,-100.00,North,359,1.0,8.0,55,0.00,,,0.00,0.000000,,2013-02-17 15:31:00,
2013-02-17 06:01:00,61.0,54.0,-100.00,SW,226,5.0,12.0,79,0.00,,,-99.99,0.000000,,2013-02-17 16:01:00,
2013-02-17 06:11:00,61.0,54.0,-100.00,SW,226,5.0,12.0,79,0.00,,,-99.99,0.000000,,2013-02-17 16:11:00,
2013-02-17 06:21:00,61.0,54.0,-100.00,SW,226,5.0,12.0,79,0.00,,,-99.99,0.000000,,2013-02-17 16:21:00,
2013-02-17 06:31:00,61.0,54.0,-100.00,SW,226,5.0,12.0,79,0.00,,,-99.99,0.000000,,2013-02-17 16:31:00,
2013-02-17 06:52:00,57.0,52.0,-100.00,SSE,162,4.0,14.0,83,0.00,,,0.00,0.000000,,2013-02-17 16:52:00,
2013-02-17 07:02:00,57.0,52.0,-100.00,SSE,162,4.0,14.0,83,0.00,,,0.00,0.000000,,2013-02-17 17:02:00,
2013-02-17 07:11:00,57.0,52.0,-100.00,SSE,162,4.0,14.0,83,0.00,,,0.00,0.000000,,2013-02-17 17:11:00,
2013-02-17 07:21:00,57.0,52.0,-100.00,SSE,162,4.0,14.0,83,0.00,,,0.00,0.000000,,2013-02-17 17:21:00,
2013-02-17 07:31:00,57.0,52.0,-100.00,SSE,162,4.0,14.0,83,0.00,,,0.00,0.000000,,2013-02-17 17:31:00,
2013-02-17 08:01:00,58.0,51.0,-100.00,South,185,4.0,8.0,78,0.00,,,0.00,42.000000,,2013-02-17 18:01:00,
2013-02-17 08:11:00,58.0,51.0,-100.00,South,185,4.0,8.0,78,0.00,,,0.00,42.000000,,2013-02-17 18:11:00,
2013-02-17 08:21:00,58.0,51.0,-100.00,South,185,4.0,8.0,78,0.00,,,0.00,42.000000,,2013-02-17 18:21:00,
2013-02-17 08:33:00,58.0,51.0,-100.00,South,185,4.0,8.0,78,0.00,,,0.00,42.000000,,2013-02-17 18:33:00,
2013-02-17 09:01:00,66.0,57.0,-100.00,WSW,239,7.0,12.0,72,0.00,,,0.00,282.000000,,2013-02-17 19:01:00,
2013-02-17 09:11:00,66.0,57.0,-100.00,WSW,239,7.0,12.0,72,0.00,,,0.00,282.000000,,2013-02-17 19:11:00,
2013-02-17 09:21:00,66.0,57.0,-100.00,WSW,239,7.0,12.0,72,0.00,,,0.00,282.000000,,2013-02-17 19:21:00,
2013-02-17 09:32:00,66.0,57.0,-100.00,WSW,239,7.0,12.0,72,0.00,,,0.00,282.000000,,2013-02-17 19:32:00,
2013-02-17 10:01:00,69.0,56.0,-100.00,WNW,283,6.0,16.0,63,0.00,,,0.00,623.000000,,2013-02-17 20:01:00,
2013-02-17 10:11:00,69.0,56.0,-100.00,WNW,283,6.0,16.0,63,0.00,,,0.00,623.000000,,2013-02-17 20:11:00,
2013-02-17 10:21:00,69.0,56.0,-100.00,WNW,283,6.0,16.0,63,0.00,,,0.00,623.000000,,2013-02-17 20:21:00,
2013-02-17 10:31:00,69.0,56.0,-100.00,WNW,283,6.0,16.0,63,0.00,,,0.00,623.000000,,2013-02-17 20:31:00,
2013-02-17 11:01:00,70.0,58.0,-100.00,WNW,298,7.0,16.0,66,0.00,,,0.00,686.000000,,2013-02-17 21:01:00,
2013-02-17 11:11:00,70.0,58.0,-100.00,WNW,298,7.0,16.0,66,0.00,,,0.00,686.000000,,2013-02-17 21:11:00,
2013-02-17 11:21:00,70.0,58.0,-100.00,WNW,298,7.0,16.0,66,0.00,,,0.00,686.000000,,2013-02-17 21:21:00,
2013-02-17 11:31:00,70.0,58.0,-100.00,WNW,298,7.0,16.0,66,0.00,,,0.00,686.000000,,2013-02-17 21:31:00,
2013-02-17 12:01:00,69.0,56.0,-100.00,West,273,6.0,15.0,63,0.00,,,0.00,515.000000,,2013-02-17 22:01:00,
2013-02-17 12:12:00,69.0,56.0,-100.00,West,273,6.0,15.0,63,0.00,,,0.00,515.000000,,2013-02-17 22:12:00,
2013-02-17 12:21:00,69.0,56.0,-100.00,West,273,6.0,15.0,63,0.00,,,0.00,515.000000,,2013-02-17 22:21:00,
2013-02-17 12:32:00,69.0,56.0,-100.00,West,273,6.0,15.0,63,0.00,,,0.00,515.000000,,2013-02-17 22:32:00,
2013-02-17 13:02:00,74.0,57.0,-100.00,ENE,73,5.0,16.0,56,0.00,,,0.00,843.000000,,2013-02-17 23:02:00,
2013-02-17 13:11:00,74.0,57.0,-100.00,ENE,73,5.0,16.0,56,0.00,,,0.00,843.000000,,2013-02-17 23:11:00,
2013-02-17 13:21:00,74.0,57.0,-100.00,ENE,73,5.0,16.0,56,0.00,,,0.00,843.000000,,2013-02-17 23:21:00,
2013-02-17 13:31:00,74.0,57.0,-100.00,ENE,73,5.0,16.0,56,0.00,,,0.00,843.000000,,2013-02-17 23:31:00,
2013-02-17 14:01:00,73.0,57.0,-100.00,ENE,57,8.0,18.0,57,0.00,,,0.00,482.000000,,2013-02-18 00:01:00,
2013-02-17 14:11:00,73.0,57.0,-100.00,ENE,57,8.0,18.0,57,0.00,,,0.00,482.000000,,2013-02-18 00:11:00,
2013-02-17 14:22:00,73.0,57.0,-100.00,ENE,57,8.0,18.0,57,0.00,,,0.00,482.000000,,2013-02-18 00:22:00,
2013-02-17 14:31:00,73.0,57.0,-100.00,ENE,57,8.0,18.0,57,0.00,,,0.00,482.000000,,2013-02-18 00:31:00,
2013-02-17 15:01:00,72.0,57.0,-100.00,WNW,285,7.0,23.0,60,0.00,,,0.00,492.000000,,2013-02-18 01:01:00,
2013-02-17 15:11:00,72.0,57.0,-100.00,WNW,285,7.0,23.0,60,0.00,,,0.00,492.000000,,2013-02-18 01:11:00,
2013-02-17 15:21:00,72.0,57.0,-100.00,WNW,285,7.0,23.0,60,0.00,,,0.00,492.000000,,2013-02-18 01:21:00,
2013-02-17 15:31:00,72.0,57.0,-100.00,WNW,285,7.0,23.0,60,0.00,,,0.00,492.000000,,2013-02-18 01:31:00,
2013-02-17 16:01:00,72.0,58.0,-100.00,West,275,7.0,20.0,62,0.00,,,0.00,334.000000,,2013-02-18 02:01:00,
2013-02-17 16:11:00,72.0,58.0,-100.00,West,275,7.0,20.0,62,0.00,,,0.00,334.000000,,2013-02-18 02:11:00,
2013-02-17 16:21:00,72.0,58.0,-100.00,West,275,7.0,20.0,62,0.00,,,0.00,334.000000,,2013-02-18 02:21:00,
2013-02-17 16:31:00,72.0,58.0,-100.00,West,275,7.0,20.0,62,0.00,,,0.00,334.000000,,2013-02-18 02:31:00,
2013-02-17 17:01:00,69.0,56.0,-100.00,West,277,8.0,19.0,64,0.00,,,0.00,213.000000,,2013-02-18 03:01:00,
2013-02-17 17:11:00,69.0,56.0,-100.00,West,277,8.0,19.0,64,0.00,,,0.00,213.000000,,2013-02-18 03:11:00,
2013-02-17 17:21:00,69.0,56.0,-100.00,West,277,8.0,19.0,64,0.00,,,0.00,213.000000,,2013-02-18 03:21:00,
2013-02-17 17:31:00,69.0,56.0,-100.00,West,277,8.0,19.0,64,0.00,,,0.00,213.000000,,2013-02-18 03:31:00,
2013-02-17 18:01:00,70.0,55.0,-100.00,West,274,8.0,18.0,60,0.00,,,0.00,160.000000,,2013-02-18 04:01:00,
2013-02-17 18:11:00,70.0,55.0,-100.00,West,274,8.0,18.0,60,0.00,,,0.00,160.000000,,2013-02-18 04:11:00,
2013-02-17 18:21:00,70.0,55.0,-100.00,West,274,8.0,18.0,60,0.00,,,0.00,160.000000,,2013-02-18 04:21:00,
2013-02-17 18:32:00,70.0,55.0,-100.00,West,274,8.0,18.0,60,0.00,,,0.00,160.000000,,2013-02-18 04:32:00,
2013-02-17 19:01:00,65.0,55.0,-100.00,NNW,341,7.0,16.0,69,0.00,,,0.00,40.000000,,2013-02-18 05:01:00,
2013-02-17 19:11:00,65.0,55.0,-100.00,NNW,341,7.0,16.0,69,0.00,,,0.00,40.000000,,2013-02-18 05:11:00,
2013-02-17 19:21:00,65.0,55.0,-100.00,NNW,341,7.0,16.0,69,0.00,,,0.00,40.000000,,2013-02-18 05:21:00,
2013-02-17 19:31:00,65.0,55.0,-100.00,NNW,341,7.0,16.0,69,0.00,,,0.00,40.000000,,2013-02-18 05:31:00,
2013-02-17 20:02:00,63.0,55.0,-100.00,ESE,104,3.0,14.0,76,0.00,,,0.00,0.000000,,2013-02-18 06:02:00,
2013-02-17 20:11:00,63.0,55.0,-100.00,ESE,104,3.0,14.0,76,0.00,,,0.00,0.000000,,2013-02-18 06:11:00,
2013-02-17 20:21:00,63.0,55.0,-100.00,ESE,104,3.0,14.0,76,0.00,,,0.00,0.000000,,2013-02-18 06:21:00,
2013-02-17 20:31:00,63.0,55.0,-100.00,ESE,104,3.0,14.0,76,0.00,,,0.00,0.000000,,2013-02-18 06:31:00,
2013-02-17 21:01:00,62.0,55.0,-100.00,ESE,110,4.0,9.0,77,0.00,,,0.00,0.000000,,2013-02-18 07:01:00,
2013-02-17 21:11:00,62.0,55.0,-100.00,ESE,110,4.0,9.0,77,0.00,,,0.00,0.000000,,2013-02-18 07:11:00,
2013-02-17 21:21:00,62.0,55.0,-100.00,ESE,110,4.0,9.0,77,0.00,,,0.00,0.000000,,2013-02-18 07:21:00,
2013-02-17 21:31:00,62.0,55.0,-100.00,ESE,110,4.0,9.0,77,0.00,,,0.00,0.000000,,2013-02-18 07:31:00,
2013-02-17 22:01:00,65.0,46.0,-100.00,SE,140,6.0,21.0,50,0.00,,,0.00,0.000000,,2013-02-18 08:01:00,
2013-02-17 22:11:00,65.0,46.0,-100.00,SE,140,6.0,21.0,50,0.00,,,0.00,0.000000,,2013-02-18 08:11:00,
2013-02-17 22:21:00,65.0,46.0,-100.00,SE,140,6.0,21.0,50,0.00,,,0.00,0.000000,,2013-02-18 08:21:00,
2013-02-17 22:32:00,65.0,46.0,-100.00,SE,140,6.0,21.0,50,0.00,,,0.00,0.000000,,2013-02-18 08:32:00,
2013-02-17 23:02:00,63.0,55.0,-100.00,WSW,249,9.0,19.0,74,0.00,,,0.00,0.000000,,2013-02-18 09:02:00,
2013-02-17 23:11:00,63.0,55.0,-100.00,WSW,249,9.0,19.0,74,0.00,,,0.00,0.000000,,2013-02-18 09:11:00,
2013-02-17 23:22:00,63.0,55.0,-100.00,WSW,249,9.0,19.0,74,0.00,,,0.00,0.000000,,2013-02-18 09:22:00,
2013-02-17 23:31:00,63.0,55.0,-100.00,WSW,249,9.0,19.0,74,0.00,,,0.00,0.000000,,2013-02-18 09:31:00,